Time;durP1;ratioP1;P1;durP2;ratioP2;P2;SDS_P1;SDS_P2;PMS_P1;PMS_P2;Temp;Humidity;BMP_temperature;BMP_pressure;BME280_temperature;BME280_humidity;BME280_pressure;Samples;Min_cycle;Max_cycle;Signal;HPM_P1;HPM_P2
2022/11/08 00:16:55;;;;;;;;;;;;;;;6.00;84.37;98796.52;420991;1298;109109;-41
2022/11/08 00:26:58;;;;;;;;;;;;;;;6.03;84.46;98797.61;421102;1292;99224;-41
2022/11/08 00:37:01;;;;;;;;;;;;;;;6.07;84.65;98796.89;420693;1298;109494;-42
2022/11/08 00:47:04;;;;;;;;;;;;;;;6.12;84.80;98798.52;420719;1298;98050;-41
2022/11/08 00:57:07;;;;;;;;;;;;;;;6.13;84.80;98796.30;420902;1291;110831;-39
2022/11/08 01:07:10;;;;;;;;;;;;;;;6.07;84.77;98798.23;421054;1294;106900;-39
2022/11/08 01:17:13;;;;;;;;;;;;;;;6.01;84.94;98794.61;420789;1298;99223;-39
2022/11/08 01:27:15;;;;;;;;;;;;;;;5.98;84.99;98784.42;420705;1298;108550;-39
2022/11/08 01:37:20;;;;;;;;;;;;;;;5.91;84.99;98782.52;420817;1298;99231;-39
2022/11/08 01:47:24;;;;;;;;;;;;;;;5.87;85.33;98782.48;420654;1298;111944;-39
2022/11/08 01:57:33;;;;;;;;;;;;;;;5.82;85.42;98781.45;420372;1296;1520168;-39
2022/11/08 02:07:36;;;;;;;;;;;;;;;5.78;85.48;98777.41;421056;1298;99265;-40
2022/11/08 02:17:40;;;;;;;;;;;;;;;5.72;85.49;98774.20;421708;1256;108360;-40
2022/11/08 02:27:43;;;;;;;;;;;;;;;5.65;85.48;98775.11;420796;1300;99197;-40
2022/11/08 02:37:46;;;;;;;;;;;;;;;5.58;85.66;98773.47;420603;1295;113964;-41
2022/11/08 02:47:49;;;;;;;;;;;;;;;5.49;85.90;98776.83;420840;1301;107784;-41
2022/11/08 02:57:51;;;;;;;;;;;;;;;5.41;86.26;98772.69;420804;1299;98837;-42
2022/11/08 03:07:55;;;;;;;;;;;;;;;5.32;86.39;98775.59;420685;1290;107620;-41
2022/11/08 03:17:58;;;;;;;;;;;;;;;5.25;86.69;98774.45;420595;1302;99380;-42
2022/11/08 03:28:00;;;;;;;;;;;;;;;5.21;86.85;98784.91;420677;1304;112069;-41
2022/11/08 03:38:03;;;;;;;;;;;;;;;5.16;87.03;98780.66;420627;1299;107917;-41
2022/11/08 03:48:05;;;;;;;;;;;;;;;5.10;87.17;98785.52;420658;1293;99924;-41
2022/11/08 03:58:08;;;;;;;;;;;;;;;5.07;87.35;98786.63;420513;1298;107489;-41
2022/11/08 04:08:11;;;;;;;;;;;;;;;5.04;87.44;98782.45;420735;1304;98972;-41
2022/11/08 04:28:36;;;;;;;;;;;;;;;4.97;87.56;98768.63;420507;1298;108279;-41
2022/11/08 04:38:39;;;;;;;;;;;;;;;4.94;87.68;98759.91;420849;1299;99653;-41
2022/11/08 04:48:42;;;;;;;;;;;;;;;4.87;87.61;98756.48;420746;1298;106776;-41
2022/11/08 04:58:46;;;;;;;;;;;;;;;4.77;87.61;98758.17;420651;1301;98650;-41
2022/11/08 05:08:49;;;;;;;;;;;;;;;4.67;87.77;98757.31;420775;1291;111679;-40
2022/11/08 05:18:52;;;;;;;;;;;;;;;4.65;87.77;98759.52;420549;1299;108336;-42
2022/11/08 05:28:55;;;;;;;;;;;;;;;4.58;87.70;98767.65;420685;1299;98867;-41
2022/11/08 05:38:57;;;;;;;;;;;;;;;4.55;87.77;98775.83;420576;1304;107564;-41
2022/11/08 05:49:00;;;;;;;;;;;;;;;4.54;87.99;98777.67;420832;1298;98520;-39
2022/11/08 05:59:02;;;;;;;;;;;;;;;4.61;88.15;98782.20;420794;1295;113613;-39
2022/11/08 06:09:05;;;;;;;;;;;;;;;4.72;88.29;98791.83;420381;1299;106768;-39
2022/11/08 06:19:08;;;;;;;;;;;;;;;4.89;88.37;98795.80;420779;1298;99170;-39
2022/11/08 06:29:11;;;;;;;;;;;;;;;5.17;88.58;98797.98;420700;1300;108285;-39
2022/11/08 06:39:13;;;;;;;;;;;;;;;5.39;88.59;98793.38;420694;1292;99256;-40
2022/11/08 06:49:16;;;;;;;;;;;;;;;5.64;88.76;98794.66;420929;1299;112018;-41
2022/11/08 06:59:19;;;;;;;;;;;;;;;6.13;89.17;98798.20;420741;1299;109420;-41
2022/11/08 07:09:22;;;;;;;;;;;;;;;7.35;89.45;98798.80;420659;1295;99233;-41
2022/11/08 07:19:24;;;;;;;;;;;;;;;8.72;89.26;98798.80;420436;1301;109518;-40
2022/11/08 07:39:29;;;;;;;;;;;;;;;10.27;87.52;98796.79;420648;1297;111515;-40
2022/11/08 07:49:32;;;;;;;;;;;;;;;10.93;87.33;98799.27;420774;1292;107691;-40
2022/11/08 07:59:34;;;;;;;;;;;;;;;11.62;86.74;98804.83;420898;1299;98837;-39
2022/11/08 08:09:37;;;;;;;;;;;;;;;12.12;86.01;98800.34;420735;1296;98838;-40
2022/11/08 08:19:40;;;;;;;;;;;;;;;12.73;85.52;98799.36;420572;1301;108564;-41
2022/11/08 08:29:43;;;;;;;;;;;;;;;12.41;84.24;98795.95;420740;1297;99383;-41
2022/11/08 08:39:45;;;;;;;;;;;;;;;12.53;84.16;98794.56;420430;1299;109978;-41
2022/11/08 08:49:48;;;;;;;;;;;;;;;12.74;83.52;98791.94;420645;1291;99231;-40
2022/11/08 08:59:51;;;;;;;;;;;;;;;12.80;83.11;98788.34;420662;1291;112035;-40
2022/11/08 09:10:15;;;;;;;;;;;;;;;12.92;82.69;98786.00;420637;1301;106991;-40
2022/11/08 09:20:17;;;;;;;;;;;;;;;13.16;82.03;98784.73;420828;1299;99287;-41
2022/11/08 09:30:20;;;;;;;;;;;;;;;13.28;80.95;98786.31;420897;1299;109572;-40
2022/11/08 09:40:22;;;;;;;;;;;;;;;13.45;80.71;98779.20;420409;1295;99227;-40
2022/11/08 09:50:28;;;;;;;;;;;;;;;13.67;80.54;98779.26;420915;1300;111118;-40
2022/11/08 10:00:32;;;;;;;;;;;;;;;13.85;80.07;98775.63;420533;1299;108138;-42
2022/11/08 10:10:35;;;;;;;;;;;;;;;14.11;79.67;98772.84;420775;1291;99240;-41
2022/11/08 10:20:38;;;;;;;;;;;;;;;14.29;78.47;98765.92;420556;1299;107679;-39
2022/11/08 10:30:43;;;;;;;;;;;;;;;14.44;77.57;98760.83;420921;1301;99231;-39
2022/11/08 10:40:50;;;;;;;;;;;;;;;14.56;77.21;98759.04;420801;1295;112090;-40
2022/11/08 10:50:54;;;;;;;;;;;;;;;14.67;77.08;98758.28;421037;1299;107714;-40
2022/11/08 11:00:58;;;;;;;;;;;;;;;14.74;76.64;98755.90;420735;1298;99252;-40
2022/11/08 11:11:14;;;;;;;;;;;;;;;14.74;76.59;98746.32;420461;1299;109281;-40
2022/11/08 11:21:18;;;;;;;;;;;;;;;14.78;76.10;98737.08;420647;1291;99746;-40
2022/11/08 11:31:20;;;;;;;;;;;;;;;14.71;75.54;98734.52;420619;1296;112228;-40
2022/11/08 11:41:23;;;;;;;;;;;;;;;14.59;74.09;98729.30;420766;1291;107749;-40
2022/11/08 11:51:27;;;;;;;;;;;;;;;14.46;73.28;98723.29;420693;1300;99966;-41
2022/11/08 12:01:31;;;;;;;;;;;;;;;14.39;73.42;98715.36;420515;1300;108751;-40
2022/11/08 12:11:35;;;;;;;;;;;;;;;14.53;73.40;98707.77;420842;1299;99252;-41
2022/11/08 12:21:45;;;;;;;;;;;;;;;14.62;72.36;98697.18;420807;1301;111865;-40
2022/11/08 12:31:47;;;;;;;;;;;;;;;14.58;72.21;98688.90;420711;1299;108025;-41
2022/11/08 12:41:51;;;;;;;;;;;;;;;14.62;71.79;98681.91;420983;1292;98665;-42
2022/11/08 12:51:58;;;;;;;;;;;;;;;14.64;71.33;98676.88;420658;1301;107242;-40
2022/11/08 13:02:00;;;;;;;;;;;;;;;14.52;71.34;98679.02;420624;1301;99233;-40
2022/11/08 13:12:03;;;;;;;;;;;;;;;14.44;71.22;98675.87;420737;1298;112917;-41
2022/11/08 13:22:09;;;;;;;;;;;;;;;14.46;70.82;98668.34;420762;1299;108175;-40
2022/11/08 13:32:20;;;;;;;;;;;;;;;14.40;70.78;98661.64;420748;1291;99284;-40
2022/11/08 13:42:29;;;;;;;;;;;;;;;14.37;70.68;98656.83;420786;1300;109510;-41
2022/11/08 13:52:49;;;;;;;;;;;;;;;14.34;71.11;98658.08;420408;1300;372165;-41
2022/11/08 14:02:52;;;;;;;;;;;;;;;14.19;70.95;98652.09;420746;1298;111122;-41
2022/11/08 14:12:59;;;;;;;;;;;;;;;14.04;70.79;98644.25;420499;1299;109412;-40
2022/11/08 14:23:03;;;;;;;;;;;;;;;13.83;70.94;98641.80;420584;1299;98854;-40
2022/11/08 14:33:05;;;;;;;;;;;;;;;13.60;71.18;98650.10;420710;1299;108629;-41
2022/11/08 14:43:09;;;;;;;;;;;;;;;13.35;71.17;98652.67;420722;1295;99237;-41
2022/11/08 14:53:25;;;;;;;;;;;;;;;13.04;71.33;98646.66;420718;1299;112210;-40
2022/11/08 15:03:30;;;;;;;;;;;;;;;12.63;71.46;98645.44;420844;1299;108598;-41
2022/11/08 15:13:32;;;;;;;;;;;;;;;12.15;71.68;98638.05;420795;1293;98836;-46
2022/11/08 15:23:46;;;;;;;;;;;;;;;11.76;71.92;98638.75;420647;1301;107728;-41
2022/11/08 15:33:49;;;;;;;;;;;;;;;11.42;72.10;98630.14;421183;1291;99393;-41
2022/11/08 15:44:04;;;;;;;;;;;;;;;11.12;72.49;98627.77;420717;1301;112159;-41
2022/11/08 15:54:07;;;;;;;;;;;;;;;10.92;72.78;98615.73;420820;1299;107843;-41
2022/11/08 16:04:10;;;;;;;;;;;;;;;10.74;73.06;98610.45;420773;1297;98943;-41
2022/11/08 16:14:12;;;;;;;;;;;;;;;10.47;73.37;98619.58;420704;1301;107580;-42
2022/11/08 16:24:16;;;;;;;;;;;;;;;10.13;73.42;98622.82;420635;1301;98481;-43
2022/11/08 16:34:19;;;;;;;;;;;;;;;9.63;73.52;98627.02;420476;1301;112997;-42
2022/11/08 16:44:22;;;;;;;;;;;;;;;9.09;73.76;98625.27;420519;1292;107292;-41
2022/11/08 17:04:28;;;;;;;;;;;;;;;8.55;74.70;98647.30;420644;1299;99227;-39
2022/11/08 17:14:30;;;;;;;;;;;;;;;8.31;74.83;98654.98;421000;1298;107447;-43
2022/11/08 17:24:33;;;;;;;;;;;;;;;8.21;75.16;98651.02;420900;1292;98046;-39
2022/11/08 17:34:38;;;;;;;;;;;;;;;8.09;75.40;98646.21;420514;1301;108154;-41
2022/11/08 17:44:41;;;;;;;;;;;;;;;8.12;76.03;98646.02;420600;1300;99158;-42
2022/11/08 17:54:44;;;;;;;;;;;;;;;8.29;76.29;98640.11;420460;1304;114928;-42
2022/11/08 18:04:52;;;;;;;;;;;;;;;8.34;76.64;98647.05;420799;1299;107974;-40
2022/11/08 18:14:54;;;;;;;;;;;;;;;8.34;76.54;98654.63;420788;1301;99263;-41
2022/11/08 18:24:57;;;;;;;;;;;;;;;8.22;76.68;98655.79;420399;1285;107779;-41
2022/11/08 18:35:00;;;;;;;;;;;;;;;8.08;76.79;98648.32;420792;1299;99116;-41
2022/11/08 18:45:04;;;;;;;;;;;;;;;7.92;76.92;98645.02;420607;1299;111662;-41
2022/11/08 18:55:07;;;;;;;;;;;;;;;7.74;77.07;98648.27;420619;1299;107591;-41
2022/11/08 19:05:10;;;;;;;;;;;;;;;7.69;77.45;98646.68;420684;1301;99351;-41
2022/11/08 19:15:13;;;;;;;;;;;;;;;7.85;77.85;98644.17;420768;1301;108586;-40
2022/11/08 19:25:15;;;;;;;;;;;;;;;7.95;77.86;98645.44;420829;1301;99903;-41
2022/11/08 19:35:18;;;;;;;;;;;;;;;8.02;78.13;98638.25;420790;1300;111552;-41
2022/11/08 19:45:21;;;;;;;;;;;;;;;8.04;78.08;98641.16;420772;1299;108368;-40
2022/11/08 19:55:24;;;;;;;;;;;;;;;7.98;78.18;98636.98;420564;1301;99263;-40
2022/11/08 20:15:29;;;;;;;;;;;;;;;7.81;78.55;98637.55;420793;1298;99406;-40
2022/11/08 20:35:35;;;;;;;;;;;;;;;8.09;79.28;98636.96;420469;1298;108376;-41
2022/11/08 20:45:38;;;;;;;;;;;;;;;8.32;79.39;98632.84;420921;1299;99225;-40
2022/11/08 20:55:40;;;;;;;;;;;;;;;8.52;79.71;98619.52;420772;1298;106737;-41
2022/11/08 21:05:48;;;;;;;;;;;;;;;8.70;79.75;98616.27;420781;1298;98046;-41
2022/11/08 21:15:51;;;;;;;;;;;;;;;8.90;79.91;98613.92;420720;1296;111132;-41
2022/11/08 21:25:53;;;;;;;;;;;;;;;9.15;80.19;98607.43;420566;1303;107696;-41
2022/11/08 21:35:56;;;;;;;;;;;;;;;9.35;80.12;98616.33;420574;1299;99237;-41
2022/11/08 21:45:59;;;;;;;;;;;;;;;9.41;80.14;98610.64;420552;1299;107813;-41
2022/11/08 21:56:02;;;;;;;;;;;;;;;9.47;80.16;98612.80;420759;1300;99229;-41
2022/11/08 22:06:04;;;;;;;;;;;;;;;9.48;80.15;98619.87;420600;1304;111043;-41
2022/11/08 22:16:06;;;;;;;;;;;;;;;9.51;80.24;98621.05;420596;1299;109372;-41
2022/11/08 22:26:09;;;;;;;;;;;;;;;9.54;80.20;98627.46;420622;1298;99249;-41
2022/11/08 22:36:12;;;;;;;;;;;;;;;9.59;80.26;98619.08;420499;1299;109423;-41
2022/11/08 22:46:15;;;;;;;;;;;;;;;9.56;80.21;98619.07;420466;1299;99279;-41
2022/11/08 22:56:17;;;;;;;;;;;;;;;9.57;80.30;98619.71;420456;1299;113072;-41
2022/11/08 23:06:20;;;;;;;;;;;;;;;9.57;80.37;98617.96;420761;1299;108359;-42
2022/11/08 23:16:36;;;;;;;;;;;;;;;9.58;80.37;98612.14;420643;1296;98837;-41
2022/11/08 23:36:59;;;;;;;;;;;;;;;9.57;80.51;98615.00;420468;1301;99230;-41
2022/11/08 23:47:01;;;;;;;;;;;;;;;9.54;80.53;98612.93;420859;1299;111248;-42
2022/11/08 23:57:04;;;;;;;;;;;;;;;9.55;80.70;98611.38;420097;1299;108509;-42
